sensor_id;sensor_type;location;lat;lon;timestamp;P1;durP1;ratioP1;P2;durP2;ratioP2
12306;SDS011;6216;51.146;7.008;2022-10-31T00:00:57;7.83;;;4.70;;
12306;SDS011;6216;51.146;7.008;2022-10-31T00:03:25;6.30;;;4.77;;
12306;SDS011;6216;51.146;7.008;2022-10-31T00:05:54;9.87;;;5.07;;
12306;SDS011;6216;51.146;7.008;2022-10-31T00:08:22;10.67;;;4.50;;
12306;SDS011;6216;51.146;7.008;2022-10-31T00:10:50;8.27;;;4.67;;
12306;SDS011;6216;51.146;7.008;2022-10-31T00:13:18;10.33;;;5.00;;
12306;SDS011;6216;51.146;7.008;2022-10-31T00:15:51;11.37;;;4.80;;
12306;SDS011;6216;51.146;7.008;2022-10-31T00:18:19;9.03;;;4.77;;
12306;SDS011;6216;51.146;7.008;2022-10-31T00:20:47;7.80;;;4.40;;
12306;SDS011;6216;51.146;7.008;2022-10-31T00:23:16;7.70;;;4.13;;
12306;SDS011;6216;51.146;7.008;2022-10-31T00:25:44;10.00;;;4.63;;
12306;SDS011;6216;51.146;7.008;2022-10-31T00:28:11;9.63;;;5.07;;
12306;SDS011;6216;51.146;7.008;2022-10-31T00:30:39;9.97;;;4.40;;
12306;SDS011;6216;51.146;7.008;2022-10-31T00:33:07;9.13;;;4.60;;
12306;SDS011;6216;51.146;7.008;2022-10-31T00:35:35;7.73;;;4.83;;
12306;SDS011;6216;51.146;7.008;2022-10-31T00:38:03;7.37;;;4.60;;
12306;SDS011;6216;51.146;7.008;2022-10-31T00:40:33;5.87;;;4.13;;
12306;SDS011;6216;51.146;7.008;2022-10-31T00:43:00;8.90;;;5.33;;
12306;SDS011;6216;51.146;7.008;2022-10-31T00:45:29;7.73;;;5.00;;
12306;SDS011;6216;51.146;7.008;2022-10-31T00:47:57;5.77;;;4.43;;
12306;SDS011;6216;51.146;7.008;2022-10-31T00:50:25;10.50;;;5.53;;
12306;SDS011;6216;51.146;7.008;2022-10-31T00:52:53;6.63;;;4.23;;
12306;SDS011;6216;51.146;7.008;2022-10-31T00:55:21;10.03;;;4.90;;
12306;SDS011;6216;51.146;7.008;2022-10-31T00:57:50;8.37;;;4.37;;
12306;SDS011;6216;51.146;7.008;2022-10-31T01:00:18;6.90;;;4.80;;
12306;SDS011;6216;51.146;7.008;2022-10-31T01:02:46;10.17;;;4.90;;
12306;SDS011;6216;51.146;7.008;2022-10-31T01:05:14;7.10;;;4.70;;
12306;SDS011;6216;51.146;7.008;2022-10-31T01:07:43;8.03;;;4.77;;
12306;SDS011;6216;51.146;7.008;2022-10-31T01:10:11;8.77;;;4.70;;
12306;SDS011;6216;51.146;7.008;2022-10-31T01:12:39;8.70;;;4.97;;
12306;SDS011;6216;51.146;7.008;2022-10-31T01:15:10;8.47;;;4.60;;
12306;SDS011;6216;51.146;7.008;2022-10-31T01:17:40;12.00;;;4.57;;
12306;SDS011;6216;51.146;7.008;2022-10-31T01:20:08;10.00;;;4.93;;
12306;SDS011;6216;51.146;7.008;2022-10-31T01:22:37;13.17;;;5.20;;
12306;SDS011;6216;51.146;7.008;2022-10-31T01:25:05;7.80;;;4.83;;
12306;SDS011;6216;51.146;7.008;2022-10-31T01:27:35;7.03;;;4.67;;
12306;SDS011;6216;51.146;7.008;2022-10-31T01:30:03;11.97;;;4.77;;
12306;SDS011;6216;51.146;7.008;2022-10-31T01:32:33;6.77;;;4.37;;
12306;SDS011;6216;51.146;7.008;2022-10-31T01:35:02;8.10;;;4.13;;
12306;SDS011;6216;51.146;7.008;2022-10-31T01:37:30;9.10;;;4.40;;
12306;SDS011;6216;51.146;7.008;2022-10-31T01:39:58;9.33;;;4.87;;
12306;SDS011;6216;51.146;7.008;2022-10-31T01:42:26;8.50;;;4.40;;
12306;SDS011;6216;51.146;7.008;2022-10-31T01:44:55;8.23;;;4.30;;
12306;SDS011;6216;51.146;7.008;2022-10-31T01:47:28;9.40;;;4.73;;
12306;SDS011;6216;51.146;7.008;2022-10-31T01:50:09;7.13;;;4.00;;
12306;SDS011;6216;51.146;7.008;2022-10-31T01:52:47;6.63;;;4.33;;
12306;SDS011;6216;51.146;7.008;2022-10-31T01:55:20;8.77;;;4.83;;
12306;SDS011;6216;51.146;7.008;2022-10-31T01:57:57;7.50;;;4.47;;
12306;SDS011;6216;51.146;7.008;2022-10-31T02:00:29;10.23;;;4.63;;
12306;SDS011;6216;51.146;7.008;2022-10-31T02:02:59;10.07;;;5.30;;
12306;SDS011;6216;51.146;7.008;2022-10-31T02:05:28;10.47;;;5.27;;
12306;SDS011;6216;51.146;7.008;2022-10-31T02:07:58;7.23;;;5.10;;
12306;SDS011;6216;51.146;7.008;2022-10-31T02:10:30;7.93;;;4.97;;
12306;SDS011;6216;51.146;7.008;2022-10-31T02:13:00;10.20;;;4.97;;
12306;SDS011;6216;51.146;7.008;2022-10-31T02:15:30;9.63;;;5.07;;
12306;SDS011;6216;51.146;7.008;2022-10-31T02:18:00;9.40;;;4.63;;
12306;SDS011;6216;51.146;7.008;2022-10-31T02:20:29;4.93;;;4.30;;
12306;SDS011;6216;51.146;7.008;2022-10-31T02:26:16;8.17;;;5.03;;
12306;SDS011;6216;51.146;7.008;2022-10-31T02:29:08;9.50;;;4.77;;
12306;SDS011;6216;51.146;7.008;2022-10-31T02:31:48;7.57;;;4.50;;
12306;SDS011;6216;51.146;7.008;2022-10-31T02:34:24;8.63;;;4.80;;
12306;SDS011;6216;51.146;7.008;2022-10-31T02:37:02;9.13;;;5.03;;
12306;SDS011;6216;51.146;7.008;2022-10-31T02:39:37;8.50;;;4.83;;
12306;SDS011;6216;51.146;7.008;2022-10-31T02:42:13;8.67;;;5.03;;
12306;SDS011;6216;51.146;7.008;2022-10-31T02:44:45;6.43;;;4.53;;
12306;SDS011;6216;51.146;7.008;2022-10-31T02:47:23;7.77;;;4.77;;
12306;SDS011;6216;51.146;7.008;2022-10-31T02:49:55;7.17;;;4.80;;
12306;SDS011;6216;51.146;7.008;2022-10-31T02:52:27;10.67;;;4.83;;
12306;SDS011;6216;51.146;7.008;2022-10-31T02:54:57;9.30;;;4.80;;
12306;SDS011;6216;51.146;7.008;2022-10-31T02:57:26;8.50;;;4.90;;
12306;SDS011;6216;51.146;7.008;2022-10-31T02:59:57;6.87;;;4.13;;
12306;SDS011;6216;51.146;7.008;2022-10-31T03:02:37;8.80;;;4.90;;
12306;SDS011;6216;51.146;7.008;2022-10-31T03:05:20;5.33;;;4.70;;
12306;SDS011;6216;51.146;7.008;2022-10-31T03:08:06;7.93;;;4.23;;
12306;SDS011;6216;51.146;7.008;2022-10-31T03:10:42;10.40;;;5.00;;
12306;SDS011;6216;51.146;7.008;2022-10-31T03:13:14;5.80;;;4.87;;
12306;SDS011;6216;51.146;7.008;2022-10-31T03:15:55;10.00;;;5.47;;
12306;SDS011;6216;51.146;7.008;2022-10-31T03:18:32;8.70;;;4.97;;
12306;SDS011;6216;51.146;7.008;2022-10-31T03:21:04;12.97;;;4.93;;
12306;SDS011;6216;51.146;7.008;2022-10-31T03:23:34;11.37;;;5.03;;
12306;SDS011;6216;51.146;7.008;2022-10-31T03:26:05;8.67;;;4.87;;
12306;SDS011;6216;51.146;7.008;2022-10-31T03:28:36;6.73;;;5.00;;
12306;SDS011;6216;51.146;7.008;2022-10-31T03:31:05;8.83;;;5.13;;
12306;SDS011;6216;51.146;7.008;2022-10-31T03:33:36;8.90;;;5.00;;
12306;SDS011;6216;51.146;7.008;2022-10-31T03:36:07;9.67;;;5.20;;
12306;SDS011;6216;51.146;7.008;2022-10-31T03:38:36;11.73;;;6.00;;
12306;SDS011;6216;51.146;7.008;2022-10-31T03:41:07;7.80;;;4.73;;
12306;SDS011;6216;51.146;7.008;2022-10-31T03:43:42;6.90;;;4.60;;
12306;SDS011;6216;51.146;7.008;2022-10-31T03:46:13;9.80;;;5.60;;
12306;SDS011;6216;51.146;7.008;2022-10-31T03:48:42;9.03;;;5.20;;
12306;SDS011;6216;51.146;7.008;2022-10-31T03:51:12;13.63;;;5.07;;
12306;SDS011;6216;51.146;7.008;2022-10-31T03:53:44;8.83;;;4.90;;
12306;SDS011;6216;51.146;7.008;2022-10-31T03:56:19;13.83;;;5.77;;
12306;SDS011;6216;51.146;7.008;2022-10-31T03:58:53;8.17;;;5.37;;
12306;SDS011;6216;51.146;7.008;2022-10-31T04:01:25;6.17;;;5.47;;
12306;SDS011;6216;51.146;7.008;2022-10-31T04:03:59;10.23;;;5.47;;
12306;SDS011;6216;51.146;7.008;2022-10-31T04:06:28;10.77;;;5.30;;
12306;SDS011;6216;51.146;7.008;2022-10-31T04:08:59;9.67;;;5.00;;
12306;SDS011;6216;51.146;7.008;2022-10-31T04:11:30;8.83;;;5.43;;
12306;SDS011;6216;51.146;7.008;2022-10-31T04:14:01;11.50;;;5.33;;
12306;SDS011;6216;51.146;7.008;2022-10-31T04:16:32;9.40;;;5.80;;
12306;SDS011;6216;51.146;7.008;2022-10-31T04:19:01;9.10;;;6.13;;
12306;SDS011;6216;51.146;7.008;2022-10-31T04:21:29;13.17;;;6.37;;
12306;SDS011;6216;51.146;7.008;2022-10-31T04:23:57;11.03;;;5.60;;
12306;SDS011;6216;51.146;7.008;2022-10-31T04:26:25;11.93;;;6.40;;
12306;SDS011;6216;51.146;7.008;2022-10-31T04:28:53;11.67;;;6.67;;
12306;SDS011;6216;51.146;7.008;2022-10-31T04:31:21;13.97;;;5.67;;
12306;SDS011;6216;51.146;7.008;2022-10-31T04:33:49;9.53;;;6.07;;
12306;SDS011;6216;51.146;7.008;2022-10-31T04:36:18;9.20;;;5.67;;
12306;SDS011;6216;51.146;7.008;2022-10-31T04:38:46;11.43;;;6.07;;
12306;SDS011;6216;51.146;7.008;2022-10-31T04:41:14;11.17;;;6.63;;
12306;SDS011;6216;51.146;7.008;2022-10-31T04:43:41;12.40;;;6.87;;
12306;SDS011;6216;51.146;7.008;2022-10-31T04:46:09;12.57;;;6.87;;
12306;SDS011;6216;51.146;7.008;2022-10-31T04:48:37;11.40;;;7.20;;
12306;SDS011;6216;51.146;7.008;2022-10-31T04:51:05;11.03;;;6.83;;
12306;SDS011;6216;51.146;7.008;2022-10-31T04:53:34;11.13;;;6.63;;
12306;SDS011;6216;51.146;7.008;2022-10-31T04:56:02;10.50;;;6.60;;
12306;SDS011;6216;51.146;7.008;2022-10-31T04:58:30;10.83;;;6.40;;
12306;SDS011;6216;51.146;7.008;2022-10-31T05:00:59;8.23;;;5.67;;
12306;SDS011;6216;51.146;7.008;2022-10-31T05:03:27;12.10;;;6.47;;
12306;SDS011;6216;51.146;7.008;2022-10-31T05:05:55;14.30;;;7.03;;
12306;SDS011;6216;51.146;7.008;2022-10-31T05:08:23;14.40;;;6.53;;
12306;SDS011;6216;51.146;7.008;2022-10-31T05:10:52;13.27;;;6.73;;
12306;SDS011;6216;51.146;7.008;2022-10-31T05:13:20;9.37;;;6.43;;
12306;SDS011;6216;51.146;7.008;2022-10-31T05:15:49;9.63;;;6.60;;
12306;SDS011;6216;51.146;7.008;2022-10-31T05:18:17;12.93;;;6.50;;
12306;SDS011;6216;51.146;7.008;2022-10-31T05:20:44;12.07;;;6.53;;
12306;SDS011;6216;51.146;7.008;2022-10-31T05:23:12;8.33;;;6.23;;
12306;SDS011;6216;51.146;7.008;2022-10-31T05:25:40;11.40;;;6.30;;
12306;SDS011;6216;51.146;7.008;2022-10-31T05:28:10;11.50;;;6.90;;
12306;SDS011;6216;51.146;7.008;2022-10-31T05:30:38;11.80;;;6.60;;
12306;SDS011;6216;51.146;7.008;2022-10-31T05:33:05;8.83;;;6.87;;
12306;SDS011;6216;51.146;7.008;2022-10-31T05:35:33;10.93;;;6.87;;
12306;SDS011;6216;51.146;7.008;2022-10-31T05:38:01;13.17;;;7.30;;
12306;SDS011;6216;51.146;7.008;2022-10-31T05:40:29;11.53;;;6.77;;
12306;SDS011;6216;51.146;7.008;2022-10-31T05:42:57;12.13;;;7.47;;
12306;SDS011;6216;51.146;7.008;2022-10-31T05:45:27;11.73;;;6.70;;
12306;SDS011;6216;51.146;7.008;2022-10-31T05:47:55;10.50;;;7.30;;
12306;SDS011;6216;51.146;7.008;2022-10-31T05:50:26;12.17;;;6.97;;
12306;SDS011;6216;51.146;7.008;2022-10-31T05:52:56;10.83;;;7.10;;
12306;SDS011;6216;51.146;7.008;2022-10-31T05:55:24;12.77;;;7.80;;
12306;SDS011;6216;51.146;7.008;2022-10-31T05:57:52;14.40;;;7.83;;
12306;SDS011;6216;51.146;7.008;2022-10-31T06:00:21;14.10;;;8.03;;
12306;SDS011;6216;51.146;7.008;2022-10-31T06:02:53;11.87;;;7.63;;
12306;SDS011;6216;51.146;7.008;2022-10-31T06:05:26;12.83;;;7.90;;
12306;SDS011;6216;51.146;7.008;2022-10-31T06:07:54;15.40;;;9.00;;
12306;SDS011;6216;51.146;7.008;2022-10-31T06:10:22;16.10;;;8.87;;
12306;SDS011;6216;51.146;7.008;2022-10-31T06:12:50;16.70;;;8.07;;
12306;SDS011;6216;51.146;7.008;2022-10-31T06:15:18;10.87;;;8.07;;
12306;SDS011;6216;51.146;7.008;2022-10-31T06:17:58;10.73;;;7.87;;
12306;SDS011;6216;51.146;7.008;2022-10-31T06:20:28;10.80;;;8.13;;
12306;SDS011;6216;51.146;7.008;2022-10-31T06:22:56;13.43;;;8.53;;
12306;SDS011;6216;51.146;7.008;2022-10-31T06:25:25;12.43;;;8.27;;
12306;SDS011;6216;51.146;7.008;2022-10-31T06:27:53;15.13;;;8.27;;
12306;SDS011;6216;51.146;7.008;2022-10-31T06:30:22;11.83;;;7.77;;
12306;SDS011;6216;51.146;7.008;2022-10-31T06:32:50;11.97;;;8.20;;
12306;SDS011;6216;51.146;7.008;2022-10-31T06:35:19;13.10;;;8.40;;
12306;SDS011;6216;51.146;7.008;2022-10-31T06:37:50;13.47;;;8.80;;
12306;SDS011;6216;51.146;7.008;2022-10-31T06:40:19;21.03;;;8.77;;
12306;SDS011;6216;51.146;7.008;2022-10-31T06:42:47;15.37;;;8.77;;
12306;SDS011;6216;51.146;7.008;2022-10-31T06:45:22;18.37;;;8.50;;
12306;SDS011;6216;51.146;7.008;2022-10-31T06:47:50;13.30;;;7.90;;
12306;SDS011;6216;51.146;7.008;2022-10-31T06:50:40;12.50;;;8.03;;
12306;SDS011;6216;51.146;7.008;2022-10-31T06:53:08;11.93;;;7.63;;
12306;SDS011;6216;51.146;7.008;2022-10-31T06:55:36;15.80;;;8.63;;
12306;SDS011;6216;51.146;7.008;2022-10-31T06:58:04;17.07;;;9.53;;
12306;SDS011;6216;51.146;7.008;2022-10-31T07:00:33;12.00;;;8.10;;
12306;SDS011;6216;51.146;7.008;2022-10-31T07:03:02;16.27;;;8.30;;
12306;SDS011;6216;51.146;7.008;2022-10-31T07:05:31;12.67;;;8.30;;
12306;SDS011;6216;51.146;7.008;2022-10-31T07:08:02;14.37;;;8.07;;
12306;SDS011;6216;51.146;7.008;2022-10-31T07:10:32;16.70;;;8.20;;
12306;SDS011;6216;51.146;7.008;2022-10-31T07:13:06;10.80;;;8.80;;
12306;SDS011;6216;51.146;7.008;2022-10-31T07:15:38;15.13;;;8.97;;
12306;SDS011;6216;51.146;7.008;2022-10-31T07:18:07;12.43;;;7.80;;
12306;SDS011;6216;51.146;7.008;2022-10-31T07:20:36;14.57;;;8.33;;
12306;SDS011;6216;51.146;7.008;2022-10-31T07:23:06;11.97;;;8.60;;
12306;SDS011;6216;51.146;7.008;2022-10-31T07:25:34;13.47;;;8.23;;
12306;SDS011;6216;51.146;7.008;2022-10-31T07:28:02;11.47;;;7.60;;
12306;SDS011;6216;51.146;7.008;2022-10-31T07:30:30;13.93;;;8.03;;
12306;SDS011;6216;51.146;7.008;2022-10-31T07:32:58;13.97;;;8.07;;
12306;SDS011;6216;51.146;7.008;2022-10-31T07:35:27;12.67;;;8.50;;
12306;SDS011;6216;51.146;7.008;2022-10-31T07:37:55;10.47;;;8.23;;
12306;SDS011;6216;51.146;7.008;2022-10-31T07:40:25;16.17;;;8.50;;
12306;SDS011;6216;51.146;7.008;2022-10-31T07:42:53;13.30;;;8.37;;
12306;SDS011;6216;51.146;7.008;2022-10-31T07:45:21;16.33;;;8.43;;
12306;SDS011;6216;51.146;7.008;2022-10-31T07:47:50;16.53;;;9.40;;
12306;SDS011;6216;51.146;7.008;2022-10-31T07:50:19;16.67;;;9.53;;
12306;SDS011;6216;51.146;7.008;2022-10-31T07:52:48;15.10;;;9.10;;
12306;SDS011;6216;51.146;7.008;2022-10-31T07:55:26;16.37;;;9.33;;
12306;SDS011;6216;51.146;7.008;2022-10-31T07:57:58;15.53;;;9.50;;
12306;SDS011;6216;51.146;7.008;2022-10-31T08:00:27;14.10;;;9.57;;
12306;SDS011;6216;51.146;7.008;2022-10-31T08:02:56;16.67;;;9.77;;
12306;SDS011;6216;51.146;7.008;2022-10-31T08:05:25;18.03;;;9.77;;
12306;SDS011;6216;51.146;7.008;2022-10-31T08:07:53;15.67;;;10.17;;
12306;SDS011;6216;51.146;7.008;2022-10-31T08:10:21;13.10;;;8.33;;
12306;SDS011;6216;51.146;7.008;2022-10-31T08:12:55;15.80;;;9.57;;
12306;SDS011;6216;51.146;7.008;2022-10-31T08:15:24;13.47;;;8.80;;
12306;SDS011;6216;51.146;7.008;2022-10-31T08:17:53;14.20;;;8.83;;
12306;SDS011;6216;51.146;7.008;2022-10-31T08:20:21;12.97;;;8.77;;
12306;SDS011;6216;51.146;7.008;2022-10-31T08:22:52;13.43;;;8.67;;
12306;SDS011;6216;51.146;7.008;2022-10-31T08:25:21;13.13;;;7.33;;
12306;SDS011;6216;51.146;7.008;2022-10-31T08:27:50;14.57;;;8.37;;
12306;SDS011;6216;51.146;7.008;2022-10-31T08:30:20;13.17;;;8.23;;
12306;SDS011;6216;51.146;7.008;2022-10-31T08:32:56;11.90;;;7.93;;
12306;SDS011;6216;51.146;7.008;2022-10-31T08:35:30;13.30;;;7.87;;
12306;SDS011;6216;51.146;7.008;2022-10-31T08:37:59;13.37;;;9.17;;
12306;SDS011;6216;51.146;7.008;2022-10-31T08:40:28;10.23;;;7.37;;
12306;SDS011;6216;51.146;7.008;2022-10-31T08:42:58;10.77;;;7.40;;
12306;SDS011;6216;51.146;7.008;2022-10-31T08:45:28;17.93;;;8.87;;
12306;SDS011;6216;51.146;7.008;2022-10-31T08:47:57;13.53;;;8.40;;
12306;SDS011;6216;51.146;7.008;2022-10-31T08:50:27;14.00;;;8.43;;
12306;SDS011;6216;51.146;7.008;2022-10-31T08:52:59;16.17;;;9.60;;
12306;SDS011;6216;51.146;7.008;2022-10-31T08:55:32;15.83;;;9.37;;
12306;SDS011;6216;51.146;7.008;2022-10-31T08:58:00;15.67;;;7.87;;
12306;SDS011;6216;51.146;7.008;2022-10-31T09:00:31;14.20;;;9.07;;
12306;SDS011;6216;51.146;7.008;2022-10-31T09:03:00;13.43;;;8.50;;
12306;SDS011;6216;51.146;7.008;2022-10-31T09:05:31;16.67;;;9.87;;
12306;SDS011;6216;51.146;7.008;2022-10-31T09:08:01;14.57;;;8.27;;
12306;SDS011;6216;51.146;7.008;2022-10-31T09:10:31;11.87;;;8.80;;
12306;SDS011;6216;51.146;7.008;2022-10-31T09:13:01;18.17;;;9.73;;
12306;SDS011;6216;51.146;7.008;2022-10-31T09:15:34;10.83;;;9.30;;
12306;SDS011;6216;51.146;7.008;2022-10-31T09:18:04;15.07;;;9.67;;
12306;SDS011;6216;51.146;7.008;2022-10-31T09:20:32;15.17;;;8.30;;
12306;SDS011;6216;51.146;7.008;2022-10-31T09:23:02;11.30;;;7.43;;
12306;SDS011;6216;51.146;7.008;2022-10-31T09:25:32;13.83;;;7.97;;
12306;SDS011;6216;51.146;7.008;2022-10-31T09:28:01;14.23;;;9.27;;
12306;SDS011;6216;51.146;7.008;2022-10-31T09:30:31;18.47;;;9.93;;
12306;SDS011;6216;51.146;7.008;2022-10-31T09:33:02;16.63;;;9.40;;
12306;SDS011;6216;51.146;7.008;2022-10-31T09:35:32;22.00;;;11.03;;
12306;SDS011;6216;51.146;7.008;2022-10-31T09:38:01;16.20;;;9.97;;
12306;SDS011;6216;51.146;7.008;2022-10-31T09:40:31;17.43;;;9.83;;
12306;SDS011;6216;51.146;7.008;2022-10-31T09:43:03;17.10;;;9.87;;
12306;SDS011;6216;51.146;7.008;2022-10-31T09:45:43;18.10;;;9.17;;
12306;SDS011;6216;51.146;7.008;2022-10-31T09:48:21;14.90;;;8.20;;
12306;SDS011;6216;51.146;7.008;2022-10-31T09:50:57;12.93;;;8.33;;
12306;SDS011;6216;51.146;7.008;2022-10-31T09:53:32;16.13;;;9.03;;
12306;SDS011;6216;51.146;7.008;2022-10-31T09:56:05;16.40;;;8.73;;
12306;SDS011;6216;51.146;7.008;2022-10-31T09:58:37;15.87;;;8.67;;
12306;SDS011;6216;51.146;7.008;2022-10-31T10:01:16;16.10;;;7.47;;
12306;SDS011;6216;51.146;7.008;2022-10-31T10:04:13;15.07;;;7.47;;
12306;SDS011;6216;51.146;7.008;2022-10-31T10:06:51;19.37;;;8.63;;
12306;SDS011;6216;51.146;7.008;2022-10-31T10:09:20;16.43;;;8.43;;
12306;SDS011;6216;51.146;7.008;2022-10-31T10:11:54;18.57;;;8.03;;
12306;SDS011;6216;51.146;7.008;2022-10-31T10:14:34;14.37;;;8.10;;
12306;SDS011;6216;51.146;7.008;2022-10-31T10:17:13;13.23;;;7.70;;
12306;SDS011;6216;51.146;7.008;2022-10-31T10:20:09;14.07;;;8.20;;
12306;SDS011;6216;51.146;7.008;2022-10-31T10:22:50;16.50;;;8.33;;
12306;SDS011;6216;51.146;7.008;2022-10-31T10:25:23;13.90;;;6.80;;
12306;SDS011;6216;51.146;7.008;2022-10-31T10:27:58;15.63;;;8.07;;
12306;SDS011;6216;51.146;7.008;2022-10-31T10:30:35;19.03;;;8.00;;
12306;SDS011;6216;51.146;7.008;2022-10-31T10:33:10;12.47;;;6.77;;
12306;SDS011;6216;51.146;7.008;2022-10-31T10:35:42;13.00;;;7.00;;
12306;SDS011;6216;51.146;7.008;2022-10-31T10:38:15;11.97;;;7.03;;
12306;SDS011;6216;51.146;7.008;2022-10-31T10:40:47;12.17;;;6.90;;
12306;SDS011;6216;51.146;7.008;2022-10-31T10:43:20;14.13;;;6.50;;
12306;SDS011;6216;51.146;7.008;2022-10-31T10:45:51;16.70;;;6.37;;
12306;SDS011;6216;51.146;7.008;2022-10-31T10:48:45;12.27;;;5.73;;
12306;SDS011;6216;51.146;7.008;2022-10-31T10:51:20;11.57;;;6.17;;
12306;SDS011;6216;51.146;7.008;2022-10-31T10:54:39;9.87;;;6.10;;
12306;SDS011;6216;51.146;7.008;2022-10-31T10:57:19;13.50;;;6.03;;
12306;SDS011;6216;51.146;7.008;2022-10-31T10:59:54;9.37;;;5.60;;
12306;SDS011;6216;51.146;7.008;2022-10-31T11:02:23;14.70;;;5.17;;
12306;SDS011;6216;51.146;7.008;2022-10-31T11:04:53;12.53;;;5.70;;
12306;SDS011;6216;51.146;7.008;2022-10-31T11:07:24;12.77;;;5.37;;
12306;SDS011;6216;51.146;7.008;2022-10-31T11:10:02;11.07;;;5.00;;
12306;SDS011;6216;51.146;7.008;2022-10-31T11:12:32;10.53;;;4.67;;
12306;SDS011;6216;51.146;7.008;2022-10-31T11:15:02;12.33;;;5.37;;
12306;SDS011;6216;51.146;7.008;2022-10-31T11:17:35;6.80;;;4.23;;
12306;SDS011;6216;51.146;7.008;2022-10-31T11:20:25;11.00;;;4.80;;
12306;SDS011;6216;51.146;7.008;2022-10-31T11:23:02;11.27;;;4.77;;
12306;SDS011;6216;51.146;7.008;2022-10-31T11:25:33;8.20;;;3.97;;
12306;SDS011;6216;51.146;7.008;2022-10-31T11:28:01;8.53;;;4.67;;
12306;SDS011;6216;51.146;7.008;2022-10-31T11:30:30;9.63;;;4.23;;
12306;SDS011;6216;51.146;7.008;2022-10-31T11:33:14;8.30;;;4.33;;
12306;SDS011;6216;51.146;7.008;2022-10-31T11:35:47;10.27;;;4.50;;
12306;SDS011;6216;51.146;7.008;2022-10-31T11:38:24;14.70;;;4.37;;
12306;SDS011;6216;51.146;7.008;2022-10-31T11:41:04;10.13;;;3.93;;
12306;SDS011;6216;51.146;7.008;2022-10-31T11:43:39;8.07;;;4.03;;
12306;SDS011;6216;51.146;7.008;2022-10-31T11:46:15;12.70;;;4.33;;
12306;SDS011;6216;51.146;7.008;2022-10-31T11:48:51;11.83;;;4.30;;
12306;SDS011;6216;51.146;7.008;2022-10-31T11:51:28;12.77;;;4.20;;
12306;SDS011;6216;51.146;7.008;2022-10-31T11:53:59;9.53;;;4.20;;
12306;SDS011;6216;51.146;7.008;2022-10-31T11:56:39;12.40;;;4.50;;
12306;SDS011;6216;51.146;7.008;2022-10-31T11:59:15;8.50;;;4.20;;
12306;SDS011;6216;51.146;7.008;2022-10-31T12:01:46;8.70;;;4.20;;
12306;SDS011;6216;51.146;7.008;2022-10-31T12:04:16;12.17;;;3.77;;
12306;SDS011;6216;51.146;7.008;2022-10-31T12:06:46;13.30;;;4.30;;
12306;SDS011;6216;51.146;7.008;2022-10-31T12:09:18;11.50;;;3.57;;
12306;SDS011;6216;51.146;7.008;2022-10-31T12:11:52;8.03;;;3.97;;
12306;SDS011;6216;51.146;7.008;2022-10-31T12:14:36;8.50;;;3.57;;
12306;SDS011;6216;51.146;7.008;2022-10-31T12:17:14;8.37;;;3.67;;
12306;SDS011;6216;51.146;7.008;2022-10-31T12:19:49;9.23;;;3.57;;
12306;SDS011;6216;51.146;7.008;2022-10-31T12:22:43;10.13;;;3.70;;
12306;SDS011;6216;51.146;7.008;2022-10-31T12:25:56;6.07;;;3.30;;
12306;SDS011;6216;51.146;7.008;2022-10-31T12:28:47;6.33;;;3.50;;
12306;SDS011;6216;51.146;7.008;2022-10-31T12:31:43;7.70;;;3.67;;
12306;SDS011;6216;51.146;7.008;2022-10-31T12:34:33;6.07;;;3.03;;
12306;SDS011;6216;51.146;7.008;2022-10-31T12:37:20;6.33;;;3.27;;
12306;SDS011;6216;51.146;7.008;2022-10-31T12:40:03;7.00;;;3.20;;
12306;SDS011;6216;51.146;7.008;2022-10-31T12:42:57;12.50;;;3.87;;
12306;SDS011;6216;51.146;7.008;2022-10-31T12:45:40;7.93;;;3.63;;
12306;SDS011;6216;51.146;7.008;2022-10-31T12:48:24;9.43;;;3.90;;
12306;SDS011;6216;51.146;7.008;2022-10-31T12:51:08;9.67;;;3.70;;
12306;SDS011;6216;51.146;7.008;2022-10-31T12:53:47;12.03;;;3.70;;
12306;SDS011;6216;51.146;7.008;2022-10-31T12:56:32;6.23;;;3.17;;
12306;SDS011;6216;51.146;7.008;2022-10-31T12:59:07;12.70;;;3.83;;
12306;SDS011;6216;51.146;7.008;2022-10-31T13:01:43;12.37;;;3.87;;
12306;SDS011;6216;51.146;7.008;2022-10-31T13:04:17;13.97;;;3.47;;
12306;SDS011;6216;51.146;7.008;2022-10-31T13:06:49;6.30;;;3.13;;
12306;SDS011;6216;51.146;7.008;2022-10-31T13:09:22;7.73;;;3.90;;
12306;SDS011;6216;51.146;7.008;2022-10-31T13:12:00;9.03;;;3.83;;
12306;SDS011;6216;51.146;7.008;2022-10-31T13:14:32;10.53;;;3.40;;
12306;SDS011;6216;51.146;7.008;2022-10-31T13:17:05;7.33;;;3.63;;
12306;SDS011;6216;51.146;7.008;2022-10-31T13:19:40;4.67;;;2.80;;
12306;SDS011;6216;51.146;7.008;2022-10-31T13:22:12;8.10;;;3.73;;
12306;SDS011;6216;51.146;7.008;2022-10-31T13:24:45;8.13;;;3.40;;
12306;SDS011;6216;51.146;7.008;2022-10-31T13:27:22;11.90;;;4.03;;
12306;SDS011;6216;51.146;7.008;2022-10-31T13:29:55;10.70;;;4.03;;
12306;SDS011;6216;51.146;7.008;2022-10-31T13:32:28;7.20;;;3.43;;
12306;SDS011;6216;51.146;7.008;2022-10-31T13:35:07;8.73;;;3.20;;
12306;SDS011;6216;51.146;7.008;2022-10-31T13:37:43;5.47;;;3.40;;
12306;SDS011;6216;51.146;7.008;2022-10-31T13:40:23;10.33;;;3.30;;
12306;SDS011;6216;51.146;7.008;2022-10-31T13:43:02;10.97;;;3.23;;
12306;SDS011;6216;51.146;7.008;2022-10-31T13:45:46;8.80;;;3.17;;
12306;SDS011;6216;51.146;7.008;2022-10-31T13:51:08;10.70;;;3.40;;
12306;SDS011;6216;51.146;7.008;2022-10-31T13:53:39;6.90;;;3.23;;
12306;SDS011;6216;51.146;7.008;2022-10-31T13:56:17;6.20;;;3.20;;
12306;SDS011;6216;51.146;7.008;2022-10-31T14:01:47;10.77;;;3.63;;
12306;SDS011;6216;51.146;7.008;2022-10-31T14:04:18;10.67;;;3.70;;
12306;SDS011;6216;51.146;7.008;2022-10-31T14:06:58;8.53;;;3.50;;
12306;SDS011;6216;51.146;7.008;2022-10-31T14:09:34;11.07;;;3.43;;
12306;SDS011;6216;51.146;7.008;2022-10-31T14:12:04;5.27;;;3.27;;
12306;SDS011;6216;51.146;7.008;2022-10-31T14:14:45;9.53;;;3.40;;
12306;SDS011;6216;51.146;7.008;2022-10-31T14:17:17;6.67;;;3.40;;
12306;SDS011;6216;51.146;7.008;2022-10-31T14:26:06;8.60;;;3.67;;
12306;SDS011;6216;51.146;7.008;2022-10-31T14:28:46;6.83;;;3.30;;
12306;SDS011;6216;51.146;7.008;2022-10-31T14:31:26;5.53;;;2.83;;
12306;SDS011;6216;51.146;7.008;2022-10-31T14:34:04;9.17;;;3.30;;
12306;SDS011;6216;51.146;7.008;2022-10-31T14:36:48;8.00;;;3.57;;
12306;SDS011;6216;51.146;7.008;2022-10-31T14:39:24;6.20;;;3.33;;
12306;SDS011;6216;51.146;7.008;2022-10-31T14:42:00;11.97;;;3.23;;
12306;SDS011;6216;51.146;7.008;2022-10-31T14:44:56;11.57;;;3.53;;
12306;SDS011;6216;51.146;7.008;2022-10-31T14:47:47;8.53;;;3.40;;
12306;SDS011;6216;51.146;7.008;2022-10-31T14:50:37;14.87;;;3.30;;
12306;SDS011;6216;51.146;7.008;2022-10-31T14:53:12;6.13;;;3.10;;
12306;SDS011;6216;51.146;7.008;2022-10-31T14:55:49;6.67;;;3.43;;
12306;SDS011;6216;51.146;7.008;2022-10-31T14:58:21;8.33;;;3.47;;
12306;SDS011;6216;51.146;7.008;2022-10-31T15:00:53;5.97;;;3.20;;
12306;SDS011;6216;51.146;7.008;2022-10-31T15:03:26;8.93;;;2.70;;
12306;SDS011;6216;51.146;7.008;2022-10-31T15:05:59;9.67;;;3.13;;
12306;SDS011;6216;51.146;7.008;2022-10-31T15:08:34;10.07;;;3.00;;
12306;SDS011;6216;51.146;7.008;2022-10-31T15:11:12;8.60;;;3.10;;
12306;SDS011;6216;51.146;7.008;2022-10-31T15:13:44;14.83;;;3.43;;
12306;SDS011;6216;51.146;7.008;2022-10-31T15:16:14;12.40;;;3.50;;
12306;SDS011;6216;51.146;7.008;2022-10-31T15:18:47;6.73;;;2.77;;
12306;SDS011;6216;51.146;7.008;2022-10-31T15:21:19;11.00;;;3.10;;
12306;SDS011;6216;51.146;7.008;2022-10-31T15:23:49;10.43;;;2.90;;
12306;SDS011;6216;51.146;7.008;2022-10-31T15:26:20;12.03;;;2.70;;
12306;SDS011;6216;51.146;7.008;2022-10-31T15:28:59;10.07;;;3.13;;
12306;SDS011;6216;51.146;7.008;2022-10-31T15:31:28;11.03;;;3.00;;
12306;SDS011;6216;51.146;7.008;2022-10-31T15:34:00;8.37;;;3.43;;
12306;SDS011;6216;51.146;7.008;2022-10-31T15:36:32;9.07;;;3.67;;
12306;SDS011;6216;51.146;7.008;2022-10-31T15:39:03;10.33;;;3.37;;
12306;SDS011;6216;51.146;7.008;2022-10-31T15:41:32;9.00;;;2.97;;